Time;durP1;ratioP1;P1;durP2;ratioP2;P2;SDS_P1;SDS_P2;PMS_P1;PMS_P2;Temp;Humidity;BMP_temperature;BMP_pressure;BME280_temperature;BME280_humidity;BME280_pressure;Samples;Min_cycle;Max_cycle;Signal;HPM_P1;HPM_P2
2023/10/14 00:00:27;;;;;;;5.82;4.80;;;;;;;-145.53;100.00;64590.91;6125891;28;109563;-62
2023/10/14 00:03:32;;;;;;;7.30;5.60;;;;;;;-145.53;100.00;64590.91;6137112;28;109493;-62
2023/10/14 00:06:38;;;;;;;8.02;5.60;;;;;;;-145.53;100.00;64590.91;6133993;28;109065;-62
2023/10/14 00:09:43;;;;;;;7.20;5.32;;;;;;;-145.53;100.00;64590.91;6138103;28;109351;-61
2023/10/14 00:12:53;;;;;;;6.10;5.38;;;;;;;-145.53;100.00;64590.91;6126708;28;109351;-62
2023/10/14 00:16:00;;;;;;;6.82;5.75;;;;;;;-145.53;100.00;64590.91;6136241;28;110656;-62
2023/10/14 00:19:05;;;;;;;7.50;5.80;;;;;;;-145.53;100.00;64590.91;6138500;28;109130;-62
2023/10/14 00:22:08;;;;;;;7.45;5.50;;;;;;;-145.53;100.00;64590.91;6126440;28;109054;-62
2023/10/14 00:25:19;;;;;;;6.38;5.63;;;;;;;-145.53;100.00;64590.91;6135350;28;111566;-62
2023/10/14 00:28:24;;;;;;;8.32;6.03;;;;;;;-145.53;100.00;64590.91;6140931;28;109123;-61
2023/10/14 00:31:28;;;;;;;6.93;5.85;;;;;;;-145.53;100.00;64590.91;6135017;28;110202;-62
2023/10/14 00:34:31;;;;;;;8.18;5.97;;;;;;;-145.53;100.00;64590.91;6130558;28;110217;-61
2023/10/14 00:37:35;;;;;;;7.05;5.50;;;;;;;-145.53;100.00;64590.91;6135143;28;109116;-61
2023/10/14 00:40:38;;;;;;;6.93;5.47;;;;;;;-145.53;100.00;64590.91;6130376;28;109482;-62
2023/10/14 00:43:43;;;;;;;6.45;5.85;;;;;;;-145.53;100.00;64590.91;6142594;28;109274;-62
2023/10/14 00:46:49;;;;;;;6.80;6.00;;;;;;;-145.53;100.00;64590.91;6126877;28;110267;-62
2023/10/14 00:49:55;;;;;;;6.33;5.47;;;;;;;-145.53;100.00;64590.91;6131572;28;109549;-61
2023/10/14 00:52:59;;;;;;;7.30;5.70;;;;;;;-145.53;100.00;64590.91;6130341;28;108953;-62
2023/10/14 00:56:03;;;;;;;5.90;5.20;;;;;;;-145.53;100.00;64590.91;6121192;28;109468;-62
2023/10/14 00:59:09;;;;;;;7.15;5.80;;;;;;;-145.53;100.00;64590.91;6132364;28;109222;-61
2023/10/14 01:02:14;;;;;;;6.00;5.40;;;;;;;-145.53;100.00;64590.91;6134357;28;111337;-65
2023/10/14 01:05:20;;;;;;;6.65;5.90;;;;;;;-145.53;100.00;64590.91;6136566;28;109462;-65
2023/10/14 01:08:25;;;;;;;6.82;5.20;;;;;;;-145.53;100.00;64590.91;6123117;28;109602;-64
2023/10/14 01:11:35;;;;;;;7.25;6.00;;;;;;;-145.53;100.00;64590.91;6134847;28;109233;-64
2023/10/14 01:14:41;;;;;;;7.07;6.20;;;;;;;-145.53;100.00;64590.91;6134473;28;109133;-65
2023/10/14 01:17:45;;;;;;;6.80;6.10;;;;;;;-145.53;100.00;64590.91;6130798;28;110635;-64
2023/10/14 01:20:48;;;;;;;6.15;5.30;;;;;;;-145.53;100.00;64590.91;6115372;28;109538;-65
2023/10/14 01:23:58;;;;;;;7.30;5.60;;;;;;;-145.53;100.00;64590.91;6131636;28;110673;-65
2023/10/14 01:27:05;;;;;;;7.65;5.85;;;;;;;-145.53;100.00;64590.91;6116750;28;109025;-65
2023/10/14 01:30:11;;;;;;;8.68;5.93;;;;;;;-145.53;100.00;64590.91;6125934;28;110018;-64
2023/10/14 01:33:16;;;;;;;7.15;5.50;;;;;;;-145.53;100.00;64590.91;6135346;28;109175;-64
2023/10/14 01:36:21;;;;;;;8.80;6.00;;;;;;;-145.53;100.00;64590.91;6135610;28;109387;-65
2023/10/14 01:39:29;;;;;;;9.60;6.10;;;;;;;-145.53;100.00;64590.91;6134678;28;110664;-65
2023/10/14 01:42:32;;;;;;;7.30;5.90;;;;;;;-145.53;100.00;64590.91;6124505;28;110139;-64
2023/10/14 01:45:42;;;;;;;7.03;6.00;;;;;;;-145.53;100.00;64590.91;6129374;28;109304;-65
2023/10/14 01:48:51;;;;;;;6.78;5.43;;;;;;;-145.53;100.00;64590.91;6136922;28;110993;-65
2023/10/14 01:51:57;;;;;;;8.70;5.90;;;;;;;-145.53;100.00;64590.91;6144492;28;110733;-65
2023/10/14 01:55:01;;;;;;;6.70;6.10;;;;;;;-145.53;100.00;64590.91;6126435;28;109354;-64
2023/10/14 01:58:10;;;;;;;7.43;6.47;;;;;;;-145.53;100.00;64590.91;6133565;28;109458;-64
2023/10/14 02:01:15;;;;;;;9.20;6.82;;;;;;;-145.53;100.00;64590.91;6111508;28;109076;-64
2023/10/14 02:04:19;;;;;;;8.40;6.70;;;;;;;-145.53;100.00;64590.91;6124440;28;109318;-64
2023/10/14 02:07:26;;;;;;;8.90;6.35;;;;;;;-145.53;100.00;64590.91;6134430;28;109245;-65
2023/10/14 02:10:35;;;;;;;8.80;6.23;;;;;;;-145.53;100.00;64590.91;6130389;28;109440;-59
2023/10/14 02:13:38;;;;;;;7.13;6.13;;;;;;;-145.53;100.00;64590.91;6131469;28;109197;-60
2023/10/14 02:16:42;;;;;;;6.80;6.10;;;;;;;-145.53;100.00;64590.91;6122946;28;109444;-59
2023/10/14 02:19:49;;;;;;;8.13;6.20;;;;;;;-145.53;100.00;64590.91;6136124;28;112125;-60
2023/10/14 02:22:57;;;;;;;8.95;6.10;;;;;;;-145.53;100.00;64590.91;6146343;28;109288;-60
2023/10/14 02:26:08;;;;;;;8.00;6.00;;;;;;;-145.53;100.00;64590.91;6135799;28;109356;-61
2023/10/14 02:29:15;;;;;;;7.43;6.25;;;;;;;-145.53;100.00;64590.91;6119079;28;109442;-60
2023/10/14 02:32:20;;;;;;;7.05;6.13;;;;;;;-145.53;100.00;64590.91;6140858;28;109117;-59
2023/10/14 02:35:24;;;;;;;8.30;6.17;;;;;;;-145.53;100.00;64590.91;6145341;28;109446;-60
2023/10/14 02:38:29;;;;;;;7.77;6.10;;;;;;;-145.53;100.00;64590.91;6104289;28;110667;-60
2023/10/14 02:41:34;;;;;;;8.55;6.40;;;;;;;-145.53;100.00;64590.91;6117471;28;109108;-62
2023/10/14 02:44:46;;;;;;;7.95;6.07;;;;;;;-145.53;100.00;64590.91;6133836;28;109478;-60
2023/10/14 02:47:50;;;;;;;7.88;5.80;;;;;;;-145.53;100.00;64590.91;6129400;28;109189;-59
2023/10/14 02:50:56;;;;;;;6.85;5.78;;;;;;;-145.53;100.00;64590.91;6120368;28;109131;-60
2023/10/14 02:54:04;;;;;;;7.30;6.60;;;;;;;-145.53;100.00;64590.91;6127897;28;109248;-60
2023/10/14 02:57:23;;;;;;;12.40;11.30;;;;;;;-145.53;100.00;64590.91;6119223;28;109191;-61
2023/10/14 03:00:31;;;;;;;18.60;16.90;;;;;;;-145.53;100.00;64590.91;6116565;28;108989;-59
2023/10/14 03:03:34;;;;;;;34.33;31.00;;;;;;;-145.53;100.00;64590.91;6125160;28;109263;-59
2023/10/14 03:06:46;;;;;;;56.97;51.97;;;;;;;-145.53;100.00;64590.91;6134300;28;109477;-59
2023/10/14 03:09:50;;;;;;;16.97;15.37;;;;;;;-145.53;100.00;64590.91;6127414;28;109080;-59
2023/10/14 03:12:57;;;;;;;10.20;9.20;;;;;;;-145.53;100.00;64590.91;6124426;28;109310;-60
2023/10/14 03:16:01;;;;;;;10.10;9.00;;;;;;;-145.53;100.00;64590.91;6131223;28;108990;-59
2023/10/14 03:19:04;;;;;;;8.70;7.90;;;;;;;-145.53;100.00;64590.91;6127856;28;109107;-59
2023/10/14 03:22:07;;;;;;;13.15;11.85;;;;;;;-145.53;100.00;64590.91;6126572;28;109078;-59
2023/10/14 03:25:12;;;;;;;22.23;20.30;;;;;;;-145.53;100.00;64590.91;6132070;28;109192;-59
2023/10/14 03:28:19;;;;;;;17.77;15.97;;;;;;;-145.53;100.00;64590.91;6114856;28;109389;-59
2023/10/14 03:31:24;;;;;;;18.92;17.23;;;;;;;-145.53;100.00;64590.91;6126971;28;109008;-60
2023/10/14 03:34:30;;;;;;;13.18;11.88;;;;;;;-145.53;100.00;64590.91;6130645;28;109494;-60
2023/10/14 03:37:36;;;;;;;10.20;9.20;;;;;;;-145.53;100.00;64590.91;6121392;28;109295;-60
2023/10/14 03:41:02;;;;;;;9.00;8.07;;;;;;;-145.53;100.00;64590.91;6129693;28;109191;-59
2023/10/14 03:44:09;;;;;;;9.73;8.32;;;;;;;-145.53;100.00;64590.91;6137323;28;109687;-59
2023/10/14 03:47:16;;;;;;;9.50;8.00;;;;;;;-145.53;100.00;64590.91;6115119;28;109315;-59
2023/10/14 03:50:24;;;;;;;8.90;8.00;;;;;;;-145.53;100.00;64590.91;6127196;28;110393;-59
2023/10/14 03:53:27;;;;;;;12.63;11.35;;;;;;;-145.53;100.00;64590.91;6131498;28;109340;-61
2023/10/14 03:56:31;;;;;;;12.43;11.13;;;;;;;-145.53;100.00;64590.91;6115696;28;110293;-60
2023/10/14 03:59:36;;;;;;;15.10;13.50;;;;;;;-145.53;100.00;64590.91;6110924;28;109581;-60
2023/10/14 04:02:40;;;;;;;13.55;11.25;;;;;;;-145.53;100.00;64590.91;6142711;28;109131;-59
2023/10/14 04:05:52;;;;;;;11.02;10.02;;;;;;;-145.53;100.00;64590.91;6142185;28;109186;-60
2023/10/14 04:08:55;;;;;;;9.82;8.93;;;;;;;-145.53;100.00;64590.91;6124245;28;109100;-59
2023/10/14 04:11:59;;;;;;;10.35;9.05;;;;;;;-145.53;100.00;64590.91;6143873;28;109293;-60
2023/10/14 04:15:15;;;;;;;17.63;16.00;;;;;;;-145.53;100.00;64590.91;6134673;28;109704;-61
2023/10/14 04:18:24;;;;;;;36.20;33.05;;;;;;;-145.53;100.00;64590.91;6137077;28;109428;-61
2023/10/14 04:21:36;;;;;;;26.80;24.35;;;;;;;-145.53;100.00;64590.91;6125402;28;109088;-62
2023/10/14 04:24:45;;;;;;;15.77;14.18;;;;;;;-145.53;100.00;64590.91;6149438;28;109222;-63
2023/10/14 04:31:18;;;;;;;13.67;11.50;;;;;;;-145.53;100.00;64590.91;6130587;28;109006;-64
2023/10/14 04:34:22;;;;;;;13.10;10.80;;;;;;;-145.53;100.00;64590.91;6130084;28;109380;-66
2023/10/14 04:37:27;;;;;;;13.60;10.43;;;;;;;-145.53;100.00;64590.91;6136738;28;109125;-66
2023/10/14 04:40:38;;;;;;;13.63;10.07;;;;;;;-145.53;100.00;64590.91;6129123;28;109211;-66
2023/10/14 04:44:02;;;;;;;13.77;11.98;;;;;;;-145.53;100.00;64590.91;6117527;28;109959;-64
2023/10/14 04:47:08;;;;;;;28.80;26.20;;;;;;;-145.53;100.00;64590.91;6126823;28;109790;-66
2023/10/14 04:50:21;;;;;;;24.92;22.42;;;;;;;-145.53;100.00;64590.91;6135448;28;109177;-65
2023/10/14 04:53:26;;;;;;;19.58;15.75;;;;;;;-145.53;100.00;64590.91;6130365;28;109320;-65
2023/10/14 04:56:30;;;;;;;16.50;13.10;;;;;;;-145.53;100.00;64590.91;6122585;28;109860;-66
2023/10/14 04:59:34;;;;;;;15.20;12.60;;;;;;;-145.53;100.00;64590.91;6132241;28;109133;-65
2023/10/14 05:02:39;;;;;;;14.10;12.50;;;;;;;-145.53;100.00;64590.91;6135004;28;109267;-66
2023/10/14 05:05:46;;;;;;;15.47;12.07;;;;;;;-145.53;100.00;64590.91;6129483;28;109573;-65
2023/10/14 05:08:51;;;;;;;22.23;12.32;;;;;;;-145.53;100.00;64590.91;6109643;28;109332;-62
2023/10/14 05:11:54;;;;;;;20.17;12.13;;;;;;;-145.53;100.00;64590.91;6116366;28;110523;-61
2023/10/14 05:14:57;;;;;;;21.08;11.50;;;;;;;-145.53;100.00;64590.91;6135940;28;109131;-61
2023/10/14 05:18:02;;;;;;;13.67;10.93;;;;;;;-145.53;100.00;64590.91;6116846;28;109212;-62
2023/10/14 05:21:12;;;;;;;13.45;10.48;;;;;;;-145.53;100.00;64590.91;6134621;28;109182;-62
2023/10/14 05:24:15;;;;;;;13.50;10.57;;;;;;;-145.53;100.00;64590.91;6112042;28;110188;-62
2023/10/14 05:27:19;;;;;;;12.43;10.05;;;;;;;-145.53;100.00;64590.91;6125280;28;109009;-62
2023/10/14 05:30:24;;;;;;;16.83;11.03;;;;;;;-145.53;100.00;64590.91;6121714;28;109872;-62
2023/10/14 05:33:28;;;;;;;12.65;10.27;;;;;;;-145.53;100.00;64590.91;6128197;28;110294;-61
2023/10/14 05:36:34;;;;;;;14.30;8.82;;;;;;;-145.53;100.00;64590.91;6137495;28;110560;-62
2023/10/14 05:39:38;;;;;;;12.23;9.57;;;;;;;-145.53;100.00;64590.91;6131023;28;108890;-62
2023/10/14 05:42:45;;;;;;;13.00;9.40;;;;;;;-145.53;100.00;64590.91;6119311;28;109329;-66
2023/10/14 05:45:49;;;;;;;15.80;10.20;;;;;;;-145.53;100.00;64590.91;6131853;28;109031;-62
2023/10/14 05:48:53;;;;;;;14.73;10.50;;;;;;;-145.53;100.00;64590.91;6144052;28;109097;-61
2023/10/14 05:51:58;;;;;;;17.35;9.88;;;;;;;-145.53;100.00;64590.91;6121575;28;108738;-62
2023/10/14 05:55:05;;;;;;;20.50;11.27;;;;;;;-145.53;100.00;64590.91;6130209;28;109257;-62
2023/10/14 05:58:08;;;;;;;19.52;10.90;;;;;;;-145.53;100.00;64590.91;6125778;28;109724;-60
2023/10/14 06:01:13;;;;;;;14.00;10.23;;;;;;;-145.53;100.00;64590.91;6119687;28;109774;-61
2023/10/14 06:04:18;;;;;;;14.80;8.57;;;;;;;-145.53;100.00;64590.91;6100553;28;109345;-62
2023/10/14 06:07:21;;;;;;;18.08;8.88;;;;;;;-145.53;100.00;64590.91;6133184;28;109384;-61
2023/10/14 06:10:24;;;;;;;12.93;8.90;;;;;;;-145.53;100.00;64590.91;6134985;28;109053;-61
2023/10/14 06:13:28;;;;;;;13.93;8.63;;;;;;;-145.53;100.00;64590.91;6130295;28;109344;-62
2023/10/14 06:16:32;;;;;;;13.00;8.43;;;;;;;-145.53;100.00;64590.91;6129219;28;109043;-61
2023/10/14 06:19:37;;;;;;;12.90;8.07;;;;;;;-145.53;100.00;64590.91;6134965;28;109293;-61
2023/10/14 06:22:40;;;;;;;13.40;8.23;;;;;;;-145.53;100.00;64590.91;6126906;28;109362;-61
2023/10/14 06:25:43;;;;;;;16.77;8.60;;;;;;;-145.53;100.00;64590.91;6100965;28;109367;-61
2023/10/14 06:28:48;;;;;;;13.73;7.80;;;;;;;-145.53;100.00;64590.91;6127772;28;109978;-62
2023/10/14 06:31:51;;;;;;;16.25;8.10;;;;;;;-145.53;100.00;64590.91;6133756;28;109867;-62
2023/10/14 06:35:14;;;;;;;11.20;7.85;;;;;;;-145.53;100.00;64590.91;6120987;28;109069;-61
2023/10/14 06:38:19;;;;;;;10.40;7.68;;;;;;;-145.53;100.00;64590.91;6122882;28;109812;-61
2023/10/14 06:41:23;;;;;;;12.35;8.02;;;;;;;-145.53;100.00;64590.91;6110465;28;109250;-61
2023/10/14 06:44:27;;;;;;;14.88;8.43;;;;;;;-145.53;100.00;64590.91;6110645;28;108843;-61
2023/10/14 06:47:30;;;;;;;11.45;8.07;;;;;;;-145.53;100.00;64590.91;6111959;28;111930;-61
2023/10/14 06:50:37;;;;;;;16.30;8.30;;;;;;;-145.53;100.00;64590.91;6128450;28;110235;-61
2023/10/14 06:53:40;;;;;;;15.95;10.00;;;;;;;-145.53;100.00;64590.91;6134897;28;110143;-65
2023/10/14 06:56:44;;;;;;;12.77;8.90;;;;;;;-145.53;100.00;64590.91;6134813;28;109373;-66
2023/10/14 06:59:48;;;;;;;9.60;7.77;;;;;;;-145.53;100.00;64590.91;6100880;28;109204;-70
2023/10/14 07:02:51;;;;;;;10.60;7.30;;;;;;;-145.53;100.00;64590.91;6110300;28;109295;-67
2023/10/14 07:05:58;;;;;;;11.52;7.68;;;;;;;-145.53;100.00;64590.91;6121195;28;109039;-68
2023/10/14 07:09:07;;;;;;;13.25;7.45;;;;;;;-145.53;100.00;64590.91;6133964;28;108894;-67
2023/10/14 07:12:14;;;;;;;8.50;6.80;;;;;;;-145.53;100.00;64590.91;6123814;28;110217;-68
2023/10/14 07:15:19;;;;;;;11.23;8.47;;;;;;;-145.53;100.00;64590.91;6138849;28;108990;-68
2023/10/14 07:18:24;;;;;;;9.98;7.72;;;;;;;-145.53;100.00;64590.91;6138447;28;110108;-67
2023/10/14 07:21:29;;;;;;;9.73;7.25;;;;;;;-145.53;100.00;64590.91;6136620;28;109473;-63
2023/10/14 07:24:32;;;;;;;9.43;7.10;;;;;;;-145.53;100.00;64590.91;6131573;28;109531;-68
2023/10/14 07:27:35;;;;;;;8.07;6.72;;;;;;;-145.53;100.00;64590.91;6138043;28;108930;-68
2023/10/14 07:30:40;;;;;;;9.17;6.43;;;;;;;-145.53;100.00;64590.91;6139027;28;109213;-68
2023/10/14 07:33:43;;;;;;;8.50;6.57;;;;;;;-145.53;100.00;64590.91;6127642;28;109901;-68
2023/10/14 07:36:50;;;;;;;10.63;6.53;;;;;;;-145.53;100.00;64590.91;6139532;28;109100;-68
2023/10/14 07:39:56;;;;;;;7.80;6.30;;;;;;;-145.53;100.00;64590.91;6139696;28;109214;-68
2023/10/14 07:43:05;;;;;;;9.00;6.60;;;;;;;-145.53;100.00;64590.91;6139007;28;109285;-68
2023/10/14 07:46:09;;;;;;;8.20;6.60;;;;;;;-145.53;100.00;64590.91;6127922;28;109299;-68
2023/10/14 07:49:14;;;;;;;8.88;6.70;;;;;;;-145.53;100.00;64590.91;6137985;28;109112;-67
2023/10/14 07:52:20;;;;;;;9.80;7.28;;;;;;;-145.53;100.00;64590.91;6137874;28;110098;-69
2023/10/14 07:55:25;;;;;;;9.27;6.95;;;;;;;-145.53;100.00;64590.91;6138633;28;109032;-70
2023/10/14 07:58:31;;;;;;;9.45;7.15;;;;;;;-145.53;100.00;64590.91;6128621;28;111160;-69
2023/10/14 08:01:37;;;;;;;9.77;7.20;;;;;;;-145.53;100.00;64590.91;6138635;28;110155;-69
2023/10/14 08:04:45;;;;;;;8.63;6.73;;;;;;;-145.53;100.00;64590.91;6137436;28;109545;-62
2023/10/14 08:07:50;;;;;;;8.15;6.80;;;;;;;-145.53;100.00;64590.91;6103644;28;109237;-61
2023/10/14 08:10:57;;;;;;;8.30;7.20;;;;;;;-145.53;100.00;64590.91;6111831;28;109248;-62
2023/10/14 08:14:00;;;;;;;8.15;7.35;;;;;;;-145.53;100.00;64590.91;6112942;28;109188;-62
2023/10/14 08:17:11;;;;;;;9.27;7.60;;;;;;;-145.53;100.00;64590.91;6113421;28;110408;-63
2023/10/14 08:20:18;;;;;;;8.90;7.43;;;;;;;-145.53;100.00;64590.91;6103282;28;109514;-62
2023/10/14 08:23:23;;;;;;;8.40;6.90;;;;;;;-145.53;100.00;64590.91;6112691;28;109360;-64
2023/10/14 08:26:27;;;;;;;8.23;7.33;;;;;;;-145.53;100.00;64590.91;6113041;28;109386;-62
2023/10/14 08:29:32;;;;;;;7.72;6.60;;;;;;;-145.53;100.00;64590.91;6112581;28;109321;-62
2023/10/14 08:32:37;;;;;;;9.60;7.00;;;;;;;-145.53;100.00;64590.91;6104023;28;110398;-61
2023/10/14 08:35:42;;;;;;;7.40;6.50;;;;;;;-145.53;100.00;64590.91;6120083;28;109300;-61
2023/10/14 08:38:47;;;;;;;7.97;6.30;;;;;;;-145.53;100.00;64590.91;6127127;28;109158;-61
2023/10/14 08:41:56;;;;;;;7.35;6.65;;;;;;;-145.53;100.00;64590.91;6101264;28;109049;-61
2023/10/14 08:45:01;;;;;;;7.95;6.20;;;;;;;-145.53;100.00;64590.91;6112222;28;109130;-61
2023/10/14 08:48:05;;;;;;;6.40;5.80;;;;;;;-145.53;100.00;64590.91;6112509;28;109149;-61
2023/10/14 08:51:09;;;;;;;7.30;6.20;;;;;;;-145.53;100.00;64590.91;6112184;28;109319;-61
2023/10/14 08:54:18;;;;;;;7.55;6.10;;;;;;;-145.53;100.00;64590.91;6102829;28;109291;-61
2023/10/14 08:57:22;;;;;;;7.05;6.35;;;;;;;-145.53;100.00;64590.91;6112430;28;109677;-61
2023/10/14 09:00:25;;;;;;;8.98;7.15;;;;;;;-145.53;100.00;64590.91;6111509;28;109475;-61
2023/10/14 09:03:30;;;;;;;7.43;6.72;;;;;;;-145.53;100.00;64590.91;6118482;28;109093;-61
2023/10/14 09:06:34;;;;;;;6.97;6.27;;;;;;;-145.53;100.00;64590.91;6126737;28;110737;-61
2023/10/14 09:09:38;;;;;;;6.82;6.10;;;;;;;-145.53;100.00;64590.91;6121105;28;109140;-61
2023/10/14 09:12:53;;;;;;;7.67;6.50;;;;;;;-145.53;100.00;64590.91;6111085;28;109537;-60
2023/10/14 09:15:57;;;;;;;7.47;6.67;;;;;;;-145.53;100.00;64590.91;6101882;28;111980;-62
2023/10/14 09:19:02;;;;;;;7.40;6.70;;;;;;;-145.53;100.00;64590.91;6120822;28;109063;-61
2023/10/14 09:22:08;;;;;;;7.90;7.10;;;;;;;-145.53;100.00;64590.91;6136156;28;109050;-61
2023/10/14 09:25:14;;;;;;;7.50;6.73;;;;;;;-145.53;100.00;64590.91;6135744;28;109083;-62
2023/10/14 09:28:20;;;;;;;8.55;6.60;;;;;;;-145.53;100.00;64590.91;6125260;28;110256;-61
2023/10/14 09:31:29;;;;;;;7.80;6.63;;;;;;;-145.53;100.00;64590.91;6135953;28;109266;-61
2023/10/14 09:34:32;;;;;;;8.03;7.00;;;;;;;-145.53;100.00;64590.91;6135018;28;109096;-61
2023/10/14 09:37:38;;;;;;;7.78;6.40;;;;;;;-145.53;100.00;64590.91;6135616;28;109149;-61
2023/10/14 09:40:44;;;;;;;7.60;6.80;;;;;;;-145.53;100.00;64590.91;6123814;28;109137;-61
2023/10/14 09:43:49;;;;;;;8.33;6.73;;;;;;;-145.53;100.00;64590.91;6134959;28;109385;-62
2023/10/14 09:46:53;;;;;;;7.78;6.50;;;;;;;-145.53;100.00;64590.91;6135753;28;109181;-61
2023/10/14 09:49:58;;;;;;;6.70;6.00;;;;;;;-145.53;100.00;64590.91;6109915;28;110269;-61
2023/10/14 09:53:02;;;;;;;6.82;6.07;;;;;;;-145.53;100.00;64590.91;6111220;28;108971;-61
2023/10/14 09:56:08;;;;;;;6.78;6.07;;;;;;;-145.53;100.00;64590.91;6135441;28;109149;-61
2023/10/14 09:59:12;;;;;;;7.00;6.30;;;;;;;-145.53;100.00;64590.91;6125876;28;109295;-60
2023/10/14 10:02:17;;;;;;;6.53;5.93;;;;;;;-145.53;100.00;64590.91;6100784;28;109118;-60
2023/10/14 10:05:27;;;;;;;6.97;6.27;;;;;;;-145.53;100.00;64590.91;6115223;28;109551;-61
2023/10/14 10:08:49;;;;;;;6.28;5.68;;;;;;;-145.53;100.00;64590.91;6132625;28;109052;-61
2023/10/14 10:11:57;;;;;;;6.70;6.00;;;;;;;-145.53;100.00;64590.91;6108580;28;109554;-61
2023/10/14 10:15:02;;;;;;;7.40;5.77;;;;;;;-145.53;100.00;64590.91;6104334;28;109793;-62
2023/10/14 10:18:12;;;;;;;6.00;5.40;;;;;;;-145.53;100.00;64590.91;6110770;28;109384;-62
2023/10/14 10:21:16;;;;;;;6.38;5.60;;;;;;;-145.53;100.00;64590.91;6110643;28;109416;-62
2023/10/14 10:24:23;;;;;;;6.38;5.63;;;;;;;-145.53;100.00;64590.91;6099769;28;109089;-61
2023/10/14 10:27:27;;;;;;;6.40;5.40;;;;;;;-145.53;100.00;64590.91;6110680;28;109672;-61
2023/10/14 10:30:30;;;;;;;5.90;5.30;;;;;;;-145.53;100.00;64590.91;6110349;28;109428;-61
2023/10/14 10:33:46;;;;;;;6.13;5.30;;;;;;;-145.53;100.00;64590.91;6110270;28;109085;-58
2023/10/14 10:36:52;;;;;;;6.10;5.40;;;;;;;-145.53;100.00;64590.91;6122193;28;109166;-60
2023/10/14 10:39:55;;;;;;;5.97;5.38;;;;;;;-145.53;100.00;64590.91;6110610;28;109208;-60
2023/10/14 10:43:06;;;;;;;6.03;5.20;;;;;;;-145.53;100.00;64590.91;6110068;28;109232;-59
2023/10/14 10:46:29;;;;;;;5.57;5.07;;;;;;;-145.53;100.00;64590.91;6105591;28;109130;-60
2023/10/14 10:49:56;;;;;;;5.38;4.88;;;;;;;-145.53;100.00;64590.91;6113360;28;110016;-60
2023/10/14 10:53:32;;;;;;;5.50;4.83;;;;;;;-145.53;100.00;64590.91;6118619;28;109208;-59
2023/10/14 10:56:35;;;;;;;5.50;5.00;;;;;;;-145.53;100.00;64590.91;6044619;28;109147;-59
2023/10/14 10:59:40;;;;;;;5.38;4.88;;;;;;;-145.53;100.00;64590.91;6131195;28;109274;-59
2023/10/14 11:02:44;;;;;;;4.90;4.40;;;;;;;-145.53;100.00;64590.91;6141961;28;109102;-59
2023/10/14 11:05:48;;;;;;;5.10;4.60;;;;;;;-145.53;100.00;64590.91;6142452;28;109028;-59
2023/10/14 11:08:52;;;;;;;5.30;4.80;;;;;;;-145.53;100.00;64590.91;6137202;28;109804;-60
2023/10/14 11:12:00;;;;;;;5.20;4.70;;;;;;;-145.53;100.00;64590.91;6136325;28;109260;-59
2023/10/14 11:15:07;;;;;;;5.10;4.60;;;;;;;-145.53;100.00;64590.91;6142132;28;109049;-60
2023/10/14 11:18:13;;;;;;;5.00;4.50;;;;;;;-145.53;100.00;64590.91;6141384;28;109262;-61
2023/10/14 11:21:37;;;;;;;5.00;4.50;;;;;;;-145.53;100.00;64590.91;6132257;28;109706;-61
2023/10/14 11:24:42;;;;;;;5.20;4.70;;;;;;;-145.53;100.00;64590.91;6141867;28;108839;-61
2023/10/14 11:27:46;;;;;;;4.90;4.40;;;;;;;-145.53;100.00;64590.91;6141669;28;109050;-59
2023/10/14 11:30:55;;;;;;;4.87;4.47;;;;;;;-145.53;100.00;64590.91;6141803;28;109205;-59
2023/10/14 11:34:01;;;;;;;4.28;3.88;;;;;;;-145.53;100.00;64590.91;6113200;28;109193;-60
2023/10/14 11:37:09;;;;;;;4.78;4.28;;;;;;;-145.53;100.00;64590.91;6146876;28;109150;-60
2023/10/14 11:40:14;;;;;;;4.90;4.38;;;;;;;-145.53;100.00;64590.91;6142116;28;109636;-60
2023/10/14 11:43:21;;;;;;;4.53;4.13;;;;;;;-145.53;100.00;64590.91;6135764;28;109382;-60
2023/10/14 11:46:28;;;;;;;4.75;4.25;;;;;;;-145.53;100.00;64590.91;6139087;28;109065;-60
2023/10/14 11:49:32;;;;;;;4.55;4.05;;;;;;;-145.53;100.00;64590.91;6140820;28;109563;-60
2023/10/14 11:52:35;;;;;;;4.78;4.38;;;;;;;-145.53;100.00;64590.91;6141398;28;109206;-61
2023/10/14 11:55:38;;;;;;;5.03;4.53;;;;;;;-145.53;100.00;64590.91;6130184;28;109304;-60
2023/10/14 11:58:42;;;;;;;4.68;4.28;;;;;;;-145.53;100.00;64590.91;6137998;28;110132;-60
2023/10/14 12:01:46;;;;;;;4.20;3.80;;;;;;;-145.53;100.00;64590.91;6137454;28;108926;-60
2023/10/14 12:04:50;;;;;;;4.90;4.40;;;;;;;-145.53;100.00;64590.91;6136927;28;109186;-60
2023/10/14 12:07:53;;;;;;;4.50;4.10;;;;;;;-145.53;100.00;64590.91;6119102;28;109589;-61
2023/10/14 12:10:57;;;;;;;4.70;4.30;;;;;;;-145.53;100.00;64590.91;6113186;28;109252;-60
2023/10/14 12:14:00;;;;;;;4.30;3.90;;;;;;;-145.53;100.00;64590.91;6112967;28;109323;-61
2023/10/14 12:17:06;;;;;;;4.40;4.00;;;;;;;-145.53;100.00;64590.91;6108283;28;110123;-62
2023/10/14 12:20:10;;;;;;;4.50;4.10;;;;;;;-145.53;100.00;64590.91;6107992;28;110630;-60
2023/10/14 12:23:13;;;;;;;4.60;4.10;;;;;;;-145.53;100.00;64590.91;6121826;28;110719;-60
2023/10/14 12:26:17;;;;;;;4.38;3.97;;;;;;;-145.53;100.00;64590.91;6137222;28;109325;-61
2023/10/14 12:29:39;;;;;;;3.92;3.60;;;;;;;-145.53;100.00;64590.91;6125575;28;111044;-61
2023/10/14 12:32:46;;;;;;;4.30;3.90;;;;;;;-145.53;100.00;64590.91;6136892;28;109233;-60
2023/10/14 12:35:51;;;;;;;4.88;4.18;;;;;;;-145.53;100.00;64590.91;6136792;28;109363;-61
2023/10/14 12:38:54;;;;;;;4.20;3.80;;;;;;;-145.53;100.00;64590.91;6136570;28;109346;-60
2023/10/14 12:42:02;;;;;;;4.30;3.90;;;;;;;-145.53;100.00;64590.91;6127011;28;110099;-60
2023/10/14 12:45:12;;;;;;;4.30;3.70;;;;;;;-145.53;100.00;64590.91;6114140;28;109354;-61
2023/10/14 12:48:17;;;;;;;4.00;3.60;;;;;;;-145.53;100.00;64590.91;6112669;28;109267;-62
2023/10/14 12:51:25;;;;;;;4.18;3.78;;;;;;;-145.53;100.00;64590.91;6106374;28;109192;-62
2023/10/14 12:54:34;;;;;;;4.30;3.90;;;;;;;-145.53;100.00;64590.91;6108244;28;109976;-62
2023/10/14 12:57:37;;;;;;;4.20;3.80;;;;;;;-145.53;100.00;64590.91;6115044;28;108936;-62
2023/10/14 13:00:42;;;;;;;3.97;3.57;;;;;;;-145.53;100.00;64590.91;6135724;28;109107;-62
2023/10/14 13:03:52;;;;;;;4.40;4.00;;;;;;;-145.53;100.00;64590.91;6115106;28;109206;-61
2023/10/14 13:06:57;;;;;;;4.00;3.60;;;;;;;-145.53;100.00;64590.91;6138027;28;109045;-61
2023/10/14 13:10:05;;;;;;;4.18;3.58;;;;;;;-145.53;100.00;64590.91;6117188;28;109022;-62
2023/10/14 13:13:08;;;;;;;3.87;3.57;;;;;;;-145.53;100.00;64590.91;6112347;28;109348;-61
2023/10/14 13:16:12;;;;;;;4.50;3.90;;;;;;;-145.53;100.00;64590.91;6102012;28;109225;-61
2023/10/14 13:19:18;;;;;;;3.95;3.55;;;;;;;-145.53;100.00;64590.91;6111930;28;109138;-61
2023/10/14 13:22:23;;;;;;;3.90;3.50;;;;;;;-145.53;100.00;64590.91;6111708;28;110560;-61
2023/10/14 13:25:27;;;;;;;4.13;3.72;;;;;;;-145.53;100.00;64590.91;6107422;28;111034;-61
2023/10/14 13:28:32;;;;;;;3.80;3.50;;;;;;;-145.53;100.00;64590.91;6106627;28;109223;-61
2023/10/14 13:31:39;;;;;;;3.60;3.30;;;;;;;-145.53;100.00;64590.91;6112313;28;112201;-61
2023/10/14 13:34:45;;;;;;;4.28;3.88;;;;;;;-145.53;100.00;64590.91;6112196;28;109080;-61
2023/10/14 13:37:49;;;;;;;4.50;3.90;;;;;;;-145.53;100.00;64590.91;6120066;28;109358;-61
2023/10/14 13:40:53;;;;;;;3.60;3.30;;;;;;;-145.53;100.00;64590.91;6136025;28;109147;-61
2023/10/14 13:43:56;;;;;;;4.27;3.77;;;;;;;-145.53;100.00;64590.91;6136358;28;111921;-63
2023/10/14 13:47:04;;;;;;;3.83;3.53;;;;;;;-145.53;100.00;64590.91;6136071;28;109543;-62
2023/10/14 13:50:12;;;;;;;4.10;3.70;;;;;;;-145.53;100.00;64590.91;6124091;28;108880;-61
2023/10/14 13:53:18;;;;;;;4.00;3.70;;;;;;;-145.53;100.00;64590.91;6134556;28;109391;-61